createdAt,value
2018-01-23T00:00:48.575Z,74.09
2018-01-23T00:03:16.892Z,75.67
2018-01-23T00:05:45.260Z,77.27
2018-01-23T00:08:13.602Z,78.03
2018-01-23T00:10:41.981Z,77.46
2018-01-23T00:13:10.345Z,77.31
2018-01-23T00:15:38.684Z,77.35
2018-01-23T00:18:07.019Z,77.81
2018-01-23T00:20:35.728Z,78.02
2018-01-23T00:23:04.793Z,78.07
2018-01-23T00:25:33.103Z,77.65
2018-01-23T00:28:01.626Z,77.48
2018-01-23T00:30:29.925Z,78.50
2018-01-23T00:32:58.238Z,77.84
2018-01-23T00:35:26.558Z,77.21
2018-01-23T00:37:54.848Z,76.81
2018-01-23T00:40:23.208Z,77.87
2018-01-23T00:42:51.794Z,78.17
2018-01-23T00:45:20.125Z,77.46
2018-01-23T00:47:48.457Z,77.49
2018-01-23T00:50:16.840Z,76.93
2018-01-23T00:52:45.147Z,77.03
2018-01-23T00:55:13.449Z,77.19
2018-01-23T00:57:41.812Z,77.27
2018-01-23T01:00:10.113Z,77.28
2018-01-23T01:02:39.183Z,77.84
2018-01-23T01:05:07.914Z,76.97
2018-01-23T01:07:36.228Z,76.57
2018-01-23T01:10:04.557Z,76.87
2018-01-23T01:12:33.668Z,77.14
2018-01-23T01:15:01.987Z,77.47
2018-01-23T01:17:31.083Z,77.27
2018-01-23T01:19:59.431Z,77.15
2018-01-23T01:22:27.762Z,76.84
2018-01-23T01:24:56.054Z,76.25
2018-01-23T01:27:24.949Z,77.56
2018-01-23T01:29:53.255Z,77.24
2018-01-23T01:32:21.626Z,77.89
2018-01-23T01:34:49.957Z,77.73
2018-01-23T01:37:18.688Z,76.93
2018-01-23T01:39:47.063Z,76.95
2018-01-23T01:42:15.416Z,77.58
2018-01-23T01:44:43.760Z,78.21
2018-01-23T01:47:12.064Z,78.29
2018-01-23T01:49:40.877Z,78.58
2018-01-23T01:52:09.176Z,78.97
2018-01-23T01:54:37.507Z,77.94
2018-01-23T01:57:05.840Z,78.18
2018-01-23T01:59:34.156Z,78.36
2018-01-23T02:02:02.452Z,78.00
2018-01-23T02:04:30.789Z,78.58
2018-01-23T02:06:59.151Z,79.09
2018-01-23T02:09:27.450Z,78.82
2018-01-23T02:11:56.185Z,78.98
2018-01-23T02:16:59.793Z,77.81
2018-01-23T02:19:28.109Z,78.17
2018-01-23T02:21:56.462Z,77.81
2018-01-23T02:24:24.826Z,79.02
2018-01-23T02:26:53.158Z,78.77
2018-01-23T02:29:21.476Z,79.25
2018-01-23T02:32:00.350Z,79.16
2018-01-23T02:34:28.716Z,79.25
2018-01-23T02:36:57.019Z,78.87
2018-01-23T02:39:25.338Z,78.50
2018-01-23T02:41:53.631Z,78.85
2018-01-23T02:44:22.938Z,78.89
2018-01-23T02:46:51.303Z,79.17
2018-01-23T02:49:19.621Z,78.89
2018-01-23T02:51:47.936Z,78.73
2018-01-23T02:54:16.716Z,79.96
2018-01-23T02:56:45.043Z,79.90
2018-01-23T02:59:14.151Z,79.68
2018-01-23T03:01:43.252Z,79.09
2018-01-23T03:04:11.617Z,79.38
2018-01-23T03:06:39.951Z,80.28
2018-01-23T03:09:08.321Z,80.76
2018-01-23T03:11:37.416Z,81.11
2018-01-23T03:14:06.481Z,80.57
2018-01-23T03:16:35.850Z,80.24
2018-01-23T03:19:04.166Z,80.43
2018-01-23T03:21:32.510Z,81.19
2018-01-23T03:24:00.940Z,81.03
2018-01-23T03:26:29.243Z,80.34
2018-01-23T03:28:57.574Z,79.29
2018-01-23T03:31:25.936Z,79.37
2018-01-23T03:33:54.302Z,79.85
2018-01-23T03:36:22.656Z,80.34
2018-01-23T03:38:52.041Z,80.87
2018-01-23T03:41:20.373Z,80.44
2018-01-23T03:43:48.697Z,80.12
2018-01-23T03:46:17.062Z,80.34
2018-01-23T03:48:45.368Z,80.48
2018-01-23T03:51:13.707Z,81.03
2018-01-23T03:53:42.052Z,79.83
2018-01-23T03:56:10.365Z,79.45
2018-01-23T03:58:38.678Z,80.29
2018-01-23T04:01:07.145Z,80.50
2018-01-23T04:03:35.431Z,80.54
2018-01-23T04:06:03.777Z,80.62
2018-01-23T04:08:32.128Z,80.86
2018-01-23T04:11:00.472Z,81.12
2018-01-23T04:13:28.787Z,81.67
2018-01-23T04:15:57.114Z,81.98
2018-01-23T04:18:25.437Z,81.57
2018-01-23T04:20:53.756Z,81.06
2018-01-23T04:23:22.507Z,80.97
2018-01-23T04:25:50.856Z,81.37
2018-01-23T04:28:19.186Z,82.19
2018-01-23T04:30:47.543Z,81.40
2018-01-23T04:33:15.853Z,81.90
2018-01-23T04:35:44.139Z,81.62
2018-01-23T04:38:12.461Z,81.54
2018-01-23T04:40:40.776Z,80.96
2018-01-23T04:43:09.076Z,80.16
2018-01-23T04:45:37.756Z,79.73
2018-01-23T04:48:06.054Z,79.80
2018-01-23T04:50:34.392Z,80.45
2018-01-23T04:53:02.772Z,79.43
2018-01-23T04:55:31.037Z,78.37
2018-01-23T04:57:59.356Z,79.08
2018-01-23T05:00:28.215Z,79.69
2018-01-23T05:02:56.512Z,79.38
2018-01-23T05:05:24.851Z,79.52
2018-01-23T05:07:53.400Z,79.22
2018-01-23T05:10:22.472Z,80.27
2018-01-23T05:12:50.851Z,80.61
2018-01-23T05:15:19.206Z,81.35
2018-01-23T05:17:47.524Z,81.53
2018-01-23T05:20:16.662Z,81.92
2018-01-23T05:22:44.982Z,81.67
2018-01-23T05:25:13.281Z,81.59
2018-01-23T05:27:41.593Z,81.94
2018-01-23T05:30:09.987Z,81.39
2018-01-23T05:32:38.304Z,82.06
2018-01-23T05:35:06.636Z,81.97
2018-01-23T05:37:34.980Z,81.61
2018-01-23T05:40:04.040Z,82.14
2018-01-23T05:42:32.381Z,82.54
2018-01-23T05:45:00.721Z,82.35
2018-01-23T05:47:29.027Z,82.47
2018-01-23T05:49:57.317Z,82.17
2018-01-23T05:52:26.075Z,81.92
2018-01-23T05:54:55.135Z,82.02
2018-01-23T05:57:24.208Z,81.77
2018-01-23T05:59:52.525Z,82.19
2018-01-23T06:02:20.831Z,82.05
2018-01-23T06:04:49.126Z,81.78
2018-01-23T06:07:17.467Z,82.19
2018-01-23T06:09:45.793Z,82.58
2018-01-23T06:12:14.096Z,82.88
2018-01-23T06:14:42.715Z,82.47
2018-01-23T06:17:11.794Z,82.04
2018-01-23T06:19:40.162Z,81.92
2018-01-23T06:22:08.532Z,81.99
2018-01-23T06:24:36.891Z,81.96
2018-01-23T06:27:05.194Z,82.01
2018-01-23T06:29:33.547Z,81.92
2018-01-23T06:32:01.868Z,81.15
2018-01-23T06:34:30.189Z,81.29
2018-01-23T06:36:58.696Z,81.58
2018-01-23T06:39:26.990Z,81.15
2018-01-23T06:41:55.283Z,81.19
2018-01-23T06:44:23.596Z,80.86
2018-01-23T06:46:51.904Z,80.69
2018-01-23T06:49:20.241Z,80.24
2018-01-23T06:51:48.606Z,80.17
2018-01-23T06:54:17.676Z,81.13
2018-01-23T06:56:45.969Z,81.64
2018-01-23T06:59:14.553Z,82.16
2018-01-23T07:01:42.883Z,81.72
2018-01-23T07:04:11.184Z,81.82
2018-01-23T07:06:39.525Z,81.95
2018-01-23T07:09:07.893Z,81.97
2018-01-23T07:11:36.180Z,81.52
2018-01-23T07:14:04.552Z,81.26
2018-01-23T07:16:32.878Z,81.26
2018-01-23T07:19:01.198Z,80.83
2018-01-23T07:21:30.699Z,80.98
2018-01-23T07:23:59.796Z,80.76
2018-01-23T07:26:28.132Z,80.18
2018-01-23T07:28:56.479Z,80.14
2018-01-23T07:31:24.800Z,79.80
2018-01-23T07:33:53.099Z,80.33
2018-01-23T07:36:21.483Z,80.46
2018-01-23T07:38:50.570Z,80.07
2018-01-23T07:41:18.912Z,80.09
2018-01-23T07:43:47.478Z,79.84
2018-01-23T07:46:15.832Z,79.30
2018-01-23T07:48:44.185Z,79.52
2018-01-23T07:51:12.561Z,79.55
2018-01-23T07:53:40.876Z,79.32
2018-01-23T07:56:09.180Z,81.92
2018-01-23T07:58:37.529Z,80.31
2018-01-23T08:01:05.852Z,80.52
2018-01-23T08:03:34.197Z,80.16
2018-01-23T08:06:02.940Z,79.79
2018-01-23T08:08:31.301Z,79.70
2018-01-23T08:10:59.628Z,79.51
2018-01-23T08:13:27.992Z,78.91
2018-01-23T08:15:56.320Z,79.20
2018-01-23T08:18:24.649Z,79.28
2018-01-23T08:20:53.741Z,79.18
2018-01-23T08:23:22.805Z,78.51
2018-01-23T08:25:51.108Z,78.59
2018-01-23T08:28:19.936Z,78.48
2018-01-23T08:30:48.261Z,78.64
2018-01-23T08:33:16.575Z,78.51
2018-01-23T08:35:44.943Z,78.64
2018-01-23T08:38:13.266Z,78.95
2018-01-23T08:40:41.569Z,79.47
2018-01-23T08:43:09.916Z,81.05
2018-01-23T08:45:38.217Z,80.09
2018-01-23T08:48:06.531Z,80.65
2018-01-23T08:50:35.227Z,80.46
2018-01-23T08:53:04.327Z,81.37
2018-01-23T08:55:33.419Z,80.81
2018-01-23T08:58:01.747Z,81.27
2018-01-23T09:00:30.091Z,81.78
2018-01-23T09:02:58.494Z,81.74
2018-01-23T09:05:26.818Z,81.79
2018-01-23T09:07:55.181Z,81.38
2018-01-23T09:10:23.508Z,81.01
2018-01-23T09:12:52.147Z,81.36
2018-01-23T09:15:20.496Z,81.71
2018-01-23T09:17:48.814Z,83.10
2018-01-23T09:20:17.173Z,83.19
2018-01-23T09:22:45.508Z,82.10
2018-01-23T09:25:13.817Z,81.51
2018-01-23T09:27:42.159Z,81.22
2018-01-23T09:30:10.495Z,81.14
2018-01-23T09:32:38.809Z,81.15
2018-01-23T09:35:07.478Z,79.82
2018-01-23T09:37:35.804Z,81.24
2018-01-23T09:40:04.109Z,81.43
2018-01-23T09:42:32.712Z,81.17
2018-01-23T09:45:01.065Z,81.21
2018-01-23T09:47:29.361Z,81.09
2018-01-23T09:49:57.715Z,81.26
2018-01-23T09:52:26.075Z,80.97
2018-01-23T09:54:54.395Z,81.44
2018-01-23T09:57:22.863Z,80.85
2018-01-23T09:59:51.184Z,81.64
2018-01-23T10:02:20.285Z,81.16
2018-01-23T10:04:48.651Z,80.66
2018-01-23T10:07:17.044Z,81.52
2018-01-23T10:09:46.135Z,81.18
2018-01-23T10:12:15.264Z,82.46
2018-01-23T10:14:43.580Z,81.39
2018-01-23T10:17:11.916Z,80.58
2018-01-23T10:19:41.623Z,82.07
2018-01-23T10:22:09.953Z,82.29
2018-01-23T10:24:38.300Z,82.81
2018-01-23T10:27:06.635Z,82.24
2018-01-23T10:29:34.977Z,82.76
2018-01-23T10:32:03.287Z,82.04
2018-01-23T10:34:32.368Z,82.02
2018-01-23T10:37:00.723Z,81.33
2018-01-23T10:39:29.030Z,80.30
2018-01-23T10:41:57.588Z,80.42
2018-01-23T10:44:25.937Z,80.01
2018-01-23T10:46:54.267Z,80.32
2018-01-23T10:49:22.641Z,80.84
2018-01-23T10:51:50.955Z,80.71
2018-01-23T10:54:19.299Z,80.44
2018-01-23T10:56:47.665Z,82.19
2018-01-23T10:59:15.984Z,82.70
2018-01-23T11:01:44.334Z,82.79
2018-01-23T11:04:12.970Z,82.24
2018-01-23T11:06:41.299Z,81.08
2018-01-23T11:09:09.643Z,81.69
2018-01-23T11:11:37.992Z,82.47
2018-01-23T11:14:06.365Z,84.13
2018-01-23T11:16:34.695Z,83.35
2018-01-23T11:19:03.138Z,81.90
2018-01-23T11:21:31.471Z,82.19
2018-01-23T11:23:59.995Z,82.26
2018-01-23T11:26:28.728Z,82.48
2018-01-23T11:28:57.043Z,81.81
2018-01-23T11:31:26.145Z,81.67
2018-01-23T11:33:54.539Z,82.58
2018-01-23T11:36:22.871Z,81.63
2018-01-23T11:38:51.183Z,80.53
2018-01-23T11:41:19.525Z,79.95
2018-01-23T11:43:47.876Z,79.66
2018-01-23T11:46:16.211Z,78.52
2018-01-23T11:48:45.096Z,79.02
2018-01-23T11:51:13.448Z,80.45
2018-01-23T11:53:41.752Z,79.78
2018-01-23T11:56:10.868Z,79.14
2018-01-23T11:58:39.192Z,79.70
2018-01-23T12:01:07.530Z,79.83
2018-01-23T12:03:36.504Z,78.14
2018-01-23T12:06:05.611Z,77.45
2018-01-23T12:08:34.694Z,77.22
2018-01-23T12:11:03.971Z,78.42
2018-01-23T12:13:32.307Z,77.13
2018-01-23T12:16:00.643Z,77.31
2018-01-23T12:18:29.000Z,78.00
2018-01-23T12:20:57.378Z,78.21
2018-01-23T12:23:25.709Z,78.99
2018-01-23T12:25:54.057Z,77.88
2018-01-23T12:28:23.132Z,76.86
2018-01-23T12:30:51.430Z,75.96
2018-01-23T12:33:20.432Z,74.55
2018-01-23T12:35:49.551Z,74.43
2018-01-23T12:38:17.916Z,75.36
2018-01-23T12:40:47.058Z,75.07
2018-01-23T12:43:15.518Z,73.95
2018-01-23T12:45:43.845Z,73.97
2018-01-23T12:48:12.204Z,71.88
2018-01-23T12:50:40.593Z,74.12
2018-01-23T12:53:08.906Z,74.07
2018-01-23T12:55:38.442Z,75.09
2018-01-23T12:58:06.771Z,76.88
2018-01-23T13:00:35.106Z,75.61
2018-01-23T13:03:03.427Z,74.55
2018-01-23T13:05:31.739Z,73.87
2018-01-23T13:08:00.053Z,74.37
2018-01-23T13:10:28.405Z,74.54
2018-01-23T13:12:56.709Z,73.33
2018-01-23T13:15:25.041Z,73.58
2018-01-23T13:17:53.688Z,73.92
2018-01-23T13:20:21.992Z,73.38
2018-01-23T13:22:50.438Z,73.56
2018-01-23T13:25:18.773Z,73.93
2018-01-23T13:27:47.106Z,73.68
2018-01-23T13:30:15.420Z,73.80
2018-01-23T13:32:44.519Z,73.60
2018-01-23T13:35:13.601Z,74.33
2018-01-23T13:37:42.705Z,73.50
2018-01-23T13:40:12.077Z,72.50
2018-01-23T13:42:40.430Z,72.37
2018-01-23T13:45:08.744Z,74.20
2018-01-23T13:47:37.081Z,74.89
2018-01-23T13:50:05.414Z,76.06
2018-01-23T13:52:33.738Z,76.14
2018-01-23T13:55:02.092Z,75.04
2018-01-23T13:57:31.214Z,75.32
2018-01-23T13:59:59.566Z,76.12
2018-01-23T14:02:28.640Z,75.38
2018-01-23T14:04:56.967Z,75.67
2018-01-23T14:07:25.312Z,74.79
2018-01-23T14:09:54.452Z,75.14
2018-01-23T14:12:22.807Z,75.28
2018-01-23T14:14:51.142Z,75.47
2018-01-23T14:17:19.571Z,76.46
2018-01-23T14:19:47.897Z,76.64
2018-01-23T14:22:16.215Z,76.72
2018-01-23T14:24:44.969Z,76.86
2018-01-23T14:27:13.341Z,77.06
2018-01-23T14:29:41.706Z,77.00
2018-01-23T14:32:10.074Z,77.18
2018-01-23T14:34:38.404Z,77.51
2018-01-23T14:37:07.460Z,77.72
2018-01-23T14:39:35.805Z,77.70
2018-01-23T14:42:04.125Z,77.59
2018-01-23T14:44:32.444Z,78.38
2018-01-23T14:47:01.057Z,78.26
2018-01-23T14:49:29.393Z,77.79
2018-01-23T14:51:59.412Z,78.21
2018-01-23T14:54:28.553Z,78.25
2018-01-23T14:56:56.912Z,78.31
2018-01-23T14:59:25.250Z,78.62
2018-01-23T15:01:54.387Z,78.08
2018-01-23T15:04:22.776Z,77.33
2018-01-23T15:06:51.076Z,77.90
2018-01-23T15:09:19.887Z,78.01
2018-01-23T15:11:48.224Z,78.59
2018-01-23T15:14:16.528Z,78.55
2018-01-23T15:16:44.902Z,78.35
2018-01-23T15:19:13.248Z,77.83
2018-01-23T15:21:41.562Z,77.47
2018-01-23T15:24:09.905Z,77.68
2018-01-23T15:26:38.252Z,77.80
2018-01-23T15:29:06.562Z,78.08
2018-01-23T15:31:35.418Z,78.02
2018-01-23T15:34:03.732Z,77.45
2018-01-23T15:36:32.035Z,76.96
2018-01-23T15:39:00.417Z,77.69
2018-01-23T15:41:28.748Z,78.22
2018-01-23T15:43:57.068Z,78.00
2018-01-23T15:46:25.457Z,77.88
2018-01-23T15:48:53.772Z,77.99
2018-01-23T15:51:22.111Z,77.84
2018-01-23T15:53:50.913Z,78.19
2018-01-23T15:56:19.217Z,78.04
2018-01-23T15:58:47.566Z,77.66
2018-01-23T16:01:15.899Z,78.32
2018-01-23T16:03:44.284Z,78.31
2018-01-23T16:06:12.610Z,77.91
2018-01-23T16:08:40.973Z,77.65
2018-01-23T16:11:09.370Z,78.02
2018-01-23T16:13:37.764Z,77.94
2018-01-23T16:16:07.262Z,76.75
2018-01-23T16:18:35.601Z,77.08
2018-01-23T16:21:03.943Z,76.62
2018-01-23T16:23:33.099Z,77.22
2018-01-23T16:26:01.437Z,76.88
2018-01-23T16:28:29.764Z,76.15
2018-01-23T16:30:58.149Z,76.49
2018-01-23T16:33:26.502Z,76.89
2018-01-23T16:35:54.853Z,76.68
2018-01-23T16:38:23.260Z,76.02
2018-01-23T16:40:51.664Z,76.09
2018-01-23T16:43:20.014Z,76.29
2018-01-23T16:45:48.376Z,77.00
2018-01-23T16:48:16.745Z,76.12
2018-01-23T16:50:45.095Z,76.41
2018-01-23T16:53:13.540Z,76.08
2018-01-23T16:55:42.693Z,75.92
2018-01-23T16:58:11.781Z,76.62
2018-01-23T17:00:41.280Z,76.00
2018-01-23T17:03:10.340Z,76.57
2018-01-23T17:05:38.645Z,76.67
2018-01-23T17:08:07.750Z,76.45
2018-01-23T17:10:36.850Z,76.73
2018-01-23T17:13:05.928Z,76.59
2018-01-23T17:15:34.259Z,77.11
2018-01-23T17:18:02.572Z,77.25
2018-01-23T17:20:30.858Z,77.02
2018-01-23T17:22:59.529Z,77.15
2018-01-23T17:25:27.831Z,77.53
2018-01-23T17:27:56.155Z,77.51
2018-01-23T17:30:24.516Z,77.58
2018-01-23T17:32:52.833Z,77.20
2018-01-23T17:35:21.136Z,77.20
2018-01-23T17:37:49.500Z,76.50
2018-01-23T17:40:17.809Z,76.17
2018-01-23T17:42:46.900Z,76.66
2018-01-23T17:45:16.102Z,76.78
2018-01-23T17:47:45.406Z,76.68
2018-01-23T17:50:14.504Z,76.62
2018-01-23T17:52:43.605Z,76.54
2018-01-23T17:55:12.745Z,76.46
2018-01-23T17:57:41.055Z,76.40
2018-01-23T18:00:09.390Z,75.81
2018-01-23T18:02:37.685Z,75.67
2018-01-23T18:05:06.025Z,75.75
2018-01-23T18:07:34.739Z,75.69
2018-01-23T18:10:03.123Z,75.37
2018-01-23T18:12:31.432Z,75.99
2018-01-23T18:14:59.809Z,75.75
2018-01-23T18:17:28.247Z,75.56
2018-01-23T18:19:56.628Z,75.57
2018-01-23T18:22:25.001Z,76.49
2018-01-23T18:24:53.427Z,76.27
2018-01-23T18:27:21.807Z,75.77
2018-01-23T18:29:50.433Z,76.64
2018-01-23T18:32:18.755Z,77.03
2018-01-23T18:34:47.110Z,77.44
2018-01-23T18:37:15.452Z,78.21
2018-01-23T18:39:43.779Z,78.25
2018-01-23T18:42:12.084Z,78.14
2018-01-23T18:44:41.221Z,78.36
2018-01-23T18:47:09.567Z,79.47
2018-01-23T18:49:37.874Z,79.59
2018-01-23T18:52:06.505Z,79.60
2018-01-23T18:54:34.820Z,79.99
2018-01-23T18:57:03.156Z,80.08
2018-01-23T18:59:31.499Z,79.70
2018-01-23T19:01:59.860Z,80.39
2018-01-23T19:04:28.206Z,81.23
2018-01-23T19:06:56.605Z,81.05
2018-01-23T19:09:24.974Z,81.73
2018-01-23T19:11:53.361Z,82.14
2018-01-23T19:14:21.900Z,81.89
2018-01-23T19:16:50.254Z,81.56
2018-01-23T19:19:19.324Z,81.20
2018-01-23T19:21:47.704Z,82.23
2018-01-23T19:24:16.069Z,81.68
2018-01-23T19:26:44.379Z,82.23
2018-01-23T19:29:13.896Z,82.12
2018-01-23T19:31:42.979Z,82.21
2018-01-23T19:34:12.142Z,82.15
2018-01-23T19:36:40.555Z,81.76
2018-01-23T19:39:09.650Z,82.11
2018-01-23T19:41:38.735Z,82.53
2018-01-23T19:44:07.127Z,82.00
2018-01-23T19:46:36.464Z,82.65
2018-01-23T19:49:04.809Z,83.11
2018-01-23T19:51:33.937Z,82.93
2018-01-23T19:54:02.276Z,83.53
2018-01-23T19:56:30.633Z,82.85
2018-01-23T19:58:59.410Z,83.57
2018-01-23T20:01:27.769Z,83.68
2018-01-23T20:03:56.159Z,84.54
2018-01-23T20:06:24.536Z,84.58
2018-01-23T20:08:53.614Z,84.89
2018-01-23T20:11:21.961Z,85.19
2018-01-23T20:13:51.830Z,84.89
2018-01-23T20:16:20.134Z,86.07
2018-01-23T20:18:48.464Z,86.22
2018-01-23T20:21:17.428Z,85.93
2018-01-23T20:23:45.769Z,85.72
2018-01-23T20:26:14.105Z,85.47
2018-01-23T20:28:42.490Z,85.85
2018-01-23T20:31:10.841Z,86.14
2018-01-23T20:33:39.965Z,86.38
2018-01-23T20:36:08.304Z,86.45
2018-01-23T20:38:36.626Z,86.78
2018-01-23T20:41:04.949Z,86.83
2018-01-23T20:43:33.753Z,86.58
2018-01-23T20:46:02.115Z,87.31
2018-01-23T20:48:30.461Z,87.07
2018-01-23T20:50:58.800Z,86.31
2018-01-23T20:53:27.133Z,86.20
2018-01-23T20:55:55.492Z,86.67
2018-01-23T20:58:23.860Z,86.65
2018-01-23T21:00:52.240Z,86.54
2018-01-23T21:03:20.582Z,86.10
2018-01-23T21:05:49.252Z,86.16
2018-01-23T21:08:17.565Z,86.29
2018-01-23T21:10:45.975Z,86.44
2018-01-23T21:13:14.356Z,86.23
2018-01-23T21:15:43.491Z,85.89
2018-01-23T21:18:11.853Z,85.64
2018-01-23T21:20:40.264Z,85.88
2018-01-23T21:23:09.388Z,85.68
2018-01-23T21:25:37.745Z,85.51
2018-01-23T21:28:07.520Z,85.06
2018-01-23T21:30:36.595Z,84.78
2018-01-23T21:33:04.926Z,84.98
2018-01-23T21:35:33.350Z,84.71
2018-01-23T21:38:01.761Z,83.74
2018-01-23T21:40:30.117Z,83.67
2018-01-23T21:42:58.488Z,83.86
2018-01-23T21:45:26.818Z,83.78
2018-01-23T21:47:55.210Z,83.72
2018-01-23T21:50:23.984Z,83.39
2018-01-23T21:52:52.352Z,83.70
2018-01-23T21:55:20.695Z,84.45
2018-01-23T21:57:49.091Z,84.33
2018-01-23T22:00:17.424Z,84.42
2018-01-23T22:02:45.789Z,84.73
2018-01-23T22:05:14.961Z,84.80
2018-01-23T22:07:43.284Z,84.74
2018-01-23T22:10:11.621Z,84.80
2018-01-23T22:12:40.330Z,84.73
2018-01-23T22:15:08.650Z,85.08
2018-01-23T22:17:36.988Z,85.18
2018-01-23T22:20:06.118Z,85.52
2018-01-23T22:22:34.435Z,85.58
2018-01-23T22:25:02.780Z,85.33
2018-01-23T22:27:31.144Z,84.90
2018-01-23T22:29:59.473Z,84.62
2018-01-23T22:32:27.802Z,85.34
2018-01-23T22:34:56.561Z,84.96
2018-01-23T22:37:25.684Z,85.17
2018-01-23T22:39:53.990Z,85.38
2018-01-23T22:42:22.323Z,84.99
2018-01-23T22:44:51.417Z,84.49
2018-01-23T22:47:19.732Z,84.94
2018-01-23T22:49:48.104Z,84.59
2018-01-23T22:52:16.591Z,83.93
2018-01-23T22:54:44.890Z,84.08
2018-01-23T22:57:13.810Z,84.17
2018-01-23T22:59:42.112Z,84.62
2018-01-23T23:02:11.194Z,85.01
2018-01-23T23:04:39.546Z,84.33
2018-01-23T23:07:07.840Z,84.46
2018-01-23T23:09:36.150Z,84.35
2018-01-23T23:12:04.496Z,83.41
2018-01-23T23:14:32.819Z,83.97
2018-01-23T23:17:01.134Z,84.17
2018-01-23T23:19:30.148Z,85.10
2018-01-23T23:21:58.478Z,85.00
2018-01-23T23:24:26.818Z,84.68
2018-01-23T23:26:55.920Z,85.31
2018-01-23T23:29:24.987Z,84.79
2018-01-23T23:31:53.381Z,84.77
2018-01-23T23:34:21.722Z,85.78
2018-01-23T23:36:50.024Z,85.39
2018-01-23T23:39:18.346Z,84.92
2018-01-23T23:41:46.952Z,84.96
2018-01-23T23:44:15.260Z,85.17
2018-01-23T23:46:43.585Z,85.06
2018-01-23T23:49:11.904Z,85.75
2018-01-23T23:51:40.206Z,86.32
2018-01-23T23:54:08.519Z,86.24
2018-01-23T23:56:36.852Z,85.37
2018-01-23T23:59:05.146Z,85.92
